Time;durP1;ratioP1;P1;durP2;ratioP2;P2;SDS_P1;SDS_P2;PMS_P1;PMS_P2;Temp;Humidity;BMP_temperature;BMP_pressure;BME280_temperature;BME280_humidity;BME280_pressure;Samples;Min_cycle;Max_cycle;Signal;HPM_P1;HPM_P2
2021/10/24 00:01:06;;;;;;;10.73;6.22;;;9.00;75.40;;;;;;5040436;28;20457;-75
2021/10/24 00:03:32;;;;;;;12.73;5.82;;;9.00;75.30;;;;;;5053706;28;20079;-75
2021/10/24 00:05:58;;;;;;;13.20;6.32;;;9.00;75.30;;;;;;5055214;28;20533;-75
2021/10/24 00:08:23;;;;;;;10.90;6.28;;;8.90;75.60;;;;;;5055332;28;20111;-75
2021/10/24 00:10:49;;;;;;;10.02;6.43;;;8.90;75.50;;;;;;5053704;28;20037;-75
2021/10/24 00:13:16;;;;;;;9.85;6.68;;;8.90;75.70;;;;;;5055055;28;20048;-75
2021/10/24 00:15:41;;;;;;;8.13;5.85;;;8.90;75.70;;;;;;5038456;28;20044;-75
2021/10/24 00:18:07;;;;;;;9.93;5.65;;;8.90;75.60;;;;;;5035235;28;20395;-75
2021/10/24 00:20:34;;;;;;;7.65;5.13;;;8.80;75.70;;;;;;5033704;28;20025;-75
2021/10/24 00:23:00;;;;;;;12.90;6.60;;;8.80;75.80;;;;;;5035086;28;20018;-75
2021/10/24 00:25:26;;;;;;;10.75;5.72;;;8.80;75.70;;;;;;5062549;28;20078;-75
2021/10/24 00:27:52;;;;;;;12.00;7.30;;;8.80;76.10;;;;;;5069328;28;20025;-75
2021/10/24 00:30:18;;;;;;;11.13;6.18;;;8.80;75.70;;;;;;5058784;28;20063;-75
2021/10/24 00:32:46;;;;;;;10.45;6.32;;;8.80;75.70;;;;;;5049535;28;20034;-75
2021/10/24 00:35:11;;;;;;;12.90;7.18;;;8.80;75.50;;;;;;5038690;28;20034;-75
2021/10/24 00:37:37;;;;;;;12.77;6.25;;;8.80;75.60;;;;;;5038779;28;20017;-75
2021/10/24 00:40:04;;;;;;;11.40;6.32;;;8.80;76.10;;;;;;5038763;28;20112;-75
2021/10/24 00:42:30;;;;;;;12.50;6.60;;;8.60;76.30;;;;;;5038657;28;20018;-75
2021/10/24 00:44:55;;;;;;;11.02;6.45;;;8.70;76.40;;;;;;5037380;28;20055;-75
2021/10/24 00:47:21;;;;;;;9.48;6.40;;;8.70;76.20;;;;;;5038374;28;20025;-75
2021/10/24 00:49:50;;;;;;;11.82;6.47;;;8.70;75.90;;;;;;5038600;28;20033;-74
2021/10/24 00:52:17;;;;;;;13.57;6.50;;;8.70;75.80;;;;;;5038381;28;20032;-75
2021/10/24 00:54:43;;;;;;;15.45;6.82;;;8.70;75.60;;;;;;5038419;28;20037;-75
2021/10/24 00:57:10;;;;;;;10.20;6.15;;;8.70;75.70;;;;;;5038272;28;20438;-75
2021/10/24 00:59:37;;;;;;;10.82;5.47;;;8.80;75.40;;;;;;5038432;28;20029;-75
2021/10/24 01:02:03;;;;;;;12.00;6.28;;;8.70;75.60;;;;;;5038221;28;20025;-75
2021/10/24 01:04:29;;;;;;;10.75;5.60;;;8.60;76.00;;;;;;5038339;28;20026;-75
2021/10/24 01:07:04;;;;;;;9.13;6.05;;;8.60;76.00;;;;;;5038203;28;20060;-75
2021/10/24 01:09:32;;;;;;;10.43;6.57;;;8.50;76.30;;;;;;5036900;28;20030;-75
2021/10/24 01:11:59;;;;;;;13.50;6.28;;;8.50;76.60;;;;;;5038070;28;20025;-74
2021/10/24 01:14:26;;;;;;;7.53;5.60;;;8.40;76.70;;;;;;5038093;28;20108;-75
2021/10/24 01:16:51;;;;;;;14.90;6.57;;;8.30;77.10;;;;;;5036461;28;20562;-75
2021/10/24 01:19:19;;;;;;;11.82;5.65;;;8.30;77.40;;;;;;5037663;28;20049;-75
2021/10/24 01:21:45;;;;;;;11.38;5.97;;;8.30;77.10;;;;;;5037904;28;20077;-75
2021/10/24 01:24:14;;;;;;;11.13;6.00;;;8.30;77.10;;;;;;5042997;28;20044;-74
2021/10/24 01:26:41;;;;;;;8.85;5.28;;;8.40;77.30;;;;;;5056687;28;20142;-75
2021/10/24 01:29:09;;;;;;;9.43;5.22;;;8.30;77.10;;;;;;5042775;28;20041;-75
2021/10/24 01:31:34;;;;;;;11.65;5.72;;;8.30;77.10;;;;;;5049016;28;20016;-74
2021/10/24 01:34:01;;;;;;;9.57;5.20;;;8.30;77.50;;;;;;5056293;28;20025;-74
2021/10/24 01:36:27;;;;;;;10.02;5.57;;;8.20;77.20;;;;;;5037646;28;20504;-75
2021/10/24 01:38:53;;;;;;;8.82;5.20;;;8.20;77.50;;;;;;5037369;28;20044;-75
2021/10/24 01:41:22;;;;;;;13.23;5.53;;;8.20;77.40;;;;;;5037414;28;20014;-74
2021/10/24 01:43:48;;;;;;;12.15;5.60;;;8.20;77.40;;;;;;5037255;28;20040;-75
2021/10/24 01:46:14;;;;;;;8.13;4.95;;;8.10;77.70;;;;;;5037422;28;20054;-75
2021/10/24 01:48:41;;;;;;;8.50;6.05;;;8.10;77.70;;;;;;5037362;28;20104;-74
2021/10/24 01:51:07;;;;;;;7.35;4.90;;;8.00;77.90;;;;;;5037486;28;20044;-74
2021/10/24 01:53:35;;;;;;;6.80;4.95;;;8.00;77.90;;;;;;5037324;28;20860;-74
2021/10/24 01:56:01;;;;;;;6.65;4.72;;;7.80;78.30;;;;;;5036973;28;20029;-75
2021/10/24 01:58:27;;;;;;;9.38;5.22;;;7.80;78.80;;;;;;5052359;28;20029;-74
2021/10/24 02:00:53;;;;;;;9.63;5.28;;;7.80;78.60;;;;;;5036289;28;20267;-74
2021/10/24 02:03:19;;;;;;;5.38;4.13;;;7.80;78.70;;;;;;5037203;28;20025;-75
2021/10/24 02:05:46;;;;;;;7.85;4.88;;;7.90;78.10;;;;;;5037145;28;20554;-75
2021/10/24 02:08:13;;;;;;;8.02;4.80;;;7.90;78.00;;;;;;5036959;28;20037;-75
2021/10/24 02:10:40;;;;;;;8.38;4.40;;;7.90;77.90;;;;;;5036966;28;20028;-75
2021/10/24 02:13:08;;;;;;;9.85;4.60;;;7.90;78.00;;;;;;5036977;28;20068;-75
2021/10/24 02:15:35;;;;;;;5.38;3.75;;;7.90;78.00;;;;;;5036809;28;20029;-75
2021/10/24 02:18:01;;;;;;;8.95;4.68;;;7.80;77.90;;;;;;5036756;28;20029;-74
2021/10/24 02:20:27;;;;;;;9.20;4.80;;;7.80;78.30;;;;;;5036805;28;20021;-75
2021/10/24 02:22:53;;;;;;;8.20;4.88;;;7.80;78.30;;;;;;5036488;28;20634;-75
2021/10/24 02:25:19;;;;;;;6.80;4.72;;;7.90;77.70;;;;;;5062284;28;20442;-75
2021/10/24 02:27:45;;;;;;;8.50;4.90;;;7.90;77.60;;;;;;5076656;28;20024;-75
2021/10/24 02:30:13;;;;;;;6.30;4.10;;;7.80;77.80;;;;;;5076721;28;20024;-75
2021/10/24 02:32:40;;;;;;;9.05;4.80;;;7.80;77.70;;;;;;5036815;28;20040;-75
2021/10/24 02:35:07;;;;;;;6.93;4.53;;;7.70;78.10;;;;;;5036486;28;20472;-75
2021/10/24 02:37:33;;;;;;;9.68;4.40;;;7.70;77.90;;;;;;5036427;28;20017;-75
2021/10/24 02:39:58;;;;;;;7.05;4.47;;;7.70;78.40;;;;;;5036489;28;20030;-74
2021/10/24 02:42:24;;;;;;;5.45;4.50;;;7.70;78.00;;;;;;5036360;28;20277;-74
2021/10/24 02:44:50;;;;;;;6.95;4.60;;;7.60;78.20;;;;;;5034920;28;20045;-75
2021/10/24 02:47:17;;;;;;;7.25;4.60;;;7.60;78.40;;;;;;5036182;28;20068;-74
2021/10/24 02:49:44;;;;;;;5.30;3.25;;;7.70;78.40;;;;;;5036193;28;20022;-74
2021/10/24 02:52:10;;;;;;;7.78;4.55;;;7.60;78.20;;;;;;5035620;28;20087;-75
2021/10/24 02:54:36;;;;;;;6.93;3.38;;;7.60;78.20;;;;;;5035951;28;20088;-75
2021/10/24 02:57:02;;;;;;;7.88;4.72;;;7.50;78.30;;;;;;5036504;28;20026;-75
2021/10/24 02:59:28;;;;;;;5.68;4.30;;;7.40;78.30;;;;;;5036001;28;20021;-74
2021/10/24 03:01:54;;;;;;;7.80;4.43;;;7.50;78.50;;;;;;5034462;28;20108;-74
2021/10/24 03:04:20;;;;;;;8.18;4.68;;;7.40;78.60;;;;;;5035704;28;20029;-75
2021/10/24 03:06:46;;;;;;;6.90;4.38;;;7.30;78.60;;;;;;5036012;28;20036;-75
2021/10/24 03:09:12;;;;;;;7.93;4.10;;;7.40;78.40;;;;;;5035897;28;20033;-74
2021/10/24 03:11:37;;;;;;;5.10;4.20;;;7.40;78.50;;;;;;5041880;28;20029;-74
2021/10/24 03:14:03;;;;;;;9.35;4.75;;;7.30;78.60;;;;;;5054113;28;20116;-74
2021/10/24 03:16:29;;;;;;;7.05;4.72;;;7.30;79.00;;;;;;5034686;28;20036;-74
2021/10/24 03:18:55;;;;;;;5.40;4.03;;;7.50;78.60;;;;;;5035469;28;20033;-74
2021/10/24 03:21:20;;;;;;;9.48;4.25;;;7.30;78.50;;;;;;5035340;28;20056;-75
2021/10/24 03:23:49;;;;;;;8.77;4.68;;;7.30;78.60;;;;;;5041182;28;20025;-75
2021/10/24 03:26:15;;;;;;;7.68;4.43;;;7.30;78.40;;;;;;5075566;28;20028;-75
2021/10/24 03:28:40;;;;;;;10.30;5.32;;;7.30;78.40;;;;;;5062594;28;20037;-75
2021/10/24 03:31:06;;;;;;;6.55;4.40;;;7.30;78.60;;;;;;5039103;28;20522;-75
2021/10/24 03:33:32;;;;;;;8.35;4.40;;;7.30;78.40;;;;;;5035434;28;20514;-75
2021/10/24 03:35:58;;;;;;;8.25;4.50;;;7.20;78.50;;;;;;5034451;28;20021;-74
2021/10/24 03:38:24;;;;;;;6.22;4.35;;;7.30;78.60;;;;;;5035127;28;20037;-74
2021/10/24 03:40:52;;;;;;;8.90;4.70;;;7.30;78.30;;;;;;5048811;28;20029;-74
2021/10/24 03:43:18;;;;;;;5.63;4.03;;;7.30;78.50;;;;;;5055272;28;20471;-75
2021/10/24 03:45:43;;;;;;;7.65;4.60;;;7.20;78.40;;;;;;5055147;28;20108;-75
2021/10/24 03:48:09;;;;;;;7.43;4.65;;;7.20;78.20;;;;;;5045707;28;20033;-75
2021/10/24 03:50:35;;;;;;;5.45;4.25;;;7.30;78.40;;;;;;5035330;28;20030;-74
2021/10/24 03:53:00;;;;;;;8.48;4.35;;;7.20;78.50;;;;;;5035320;28;20038;-74
2021/10/24 03:55:26;;;;;;;7.57;4.55;;;7.10;78.90;;;;;;5035223;28;20395;-75
2021/10/24 03:57:52;;;;;;;5.45;4.10;;;7.10;78.70;;;;;;5035356;28;20022;-74
2021/10/24 04:00:18;;;;;;;9.10;4.88;;;7.10;79.10;;;;;;5035292;28;20057;-74
2021/10/24 04:02:54;;;;;;;7.30;4.07;;;7.10;78.70;;;;;;5037558;28;20040;-74
2021/10/24 04:05:20;;;;;;;9.90;4.80;;;7.10;78.90;;;;;;5039770;28;20080;-75
2021/10/24 04:07:48;;;;;;;9.45;4.88;;;7.00;78.90;;;;;;5039355;28;20487;-75
2021/10/24 04:10:17;;;;;;;6.00;4.32;;;7.00;79.30;;;;;;5039447;28;20387;-74
2021/10/24 04:12:44;;;;;;;8.18;4.43;;;7.00;78.90;;;;;;5038136;28;20022;-74
2021/10/24 04:15:10;;;;;;;4.75;3.85;;;6.90;79.20;;;;;;5039369;28;20067;-74
2021/10/24 04:17:36;;;;;;;6.45;3.63;;;7.00;79.10;;;;;;5053726;28;20025;-75
2021/10/24 04:20:19;;;;;;;6.13;4.38;;;7.10;78.80;;;;;;5053488;28;20121;-75
2021/10/24 04:22:46;;;;;;;6.93;4.10;;;7.00;78.80;;;;;;5039047;28;20017;-75
2021/10/24 04:25:12;;;;;;;8.40;5.07;;;7.00;79.20;;;;;;5062722;28;20021;-74
2021/10/24 04:27:38;;;;;;;7.22;4.00;;;7.00;79.20;;;;;;5060163;28;20078;-75
2021/10/24 04:30:07;;;;;;;5.00;3.95;;;7.00;79.00;;;;;;5039050;28;20459;-75
2021/10/24 04:32:33;;;;;;;7.50;3.45;;;7.00;78.90;;;;;;5038737;28;20108;-75
2021/10/24 04:34:59;;;;;;;8.75;4.80;;;7.00;79.20;;;;;;5038903;28;20843;-74
2021/10/24 04:37:28;;;;;;;11.35;4.68;;;7.00;78.90;;;;;;5056454;28;20029;-75
2021/10/24 04:39:53;;;;;;;6.07;3.75;;;6.90;79.00;;;;;;5052950;28;20029;-75
2021/10/24 04:42:19;;;;;;;6.30;4.22;;;6.80;79.30;;;;;;5038738;28;20029;-74
2021/10/24 04:44:45;;;;;;;5.97;3.33;;;6.80;79.50;;;;;;5038535;28;20045;-75
2021/10/24 04:47:11;;;;;;;6.32;4.32;;;6.80;79.40;;;;;;5036878;28;20102;-75
2021/10/24 04:49:37;;;;;;;10.18;4.85;;;6.70;79.50;;;;;;5038584;28;20037;-74
2021/10/24 04:52:03;;;;;;;6.20;4.15;;;6.70;79.80;;;;;;5038480;28;20152;-74
2021/10/24 04:54:46;;;;;;;3.83;2.72;;;6.70;80.00;;;;;;5038687;28;20099;-75
2021/10/24 04:57:11;;;;;;;6.07;4.00;;;6.70;79.60;;;;;;5038535;28;20029;-75
2021/10/24 04:59:37;;;;;;;5.68;3.83;;;6.70;79.80;;;;;;5038321;28;20106;-75
2021/10/24 05:02:03;;;;;;;13.93;6.57;;;6.80;79.70;;;;;;5036883;28;20104;-75
2021/10/24 05:04:29;;;;;;;6.10;4.07;;;6.80;79.80;;;;;;5038474;28;20082;-75
2021/10/24 05:06:55;;;;;;;5.32;3.67;;;6.80;79.60;;;;;;5036932;28;20021;-74
2021/10/24 05:09:20;;;;;;;6.05;3.85;;;6.80;79.60;;;;;;5037987;28;20034;-74
2021/10/24 05:11:51;;;;;;;11.43;4.13;;;6.70;79.60;;;;;;5053553;28;20025;-75
2021/10/24 05:14:16;;;;;;;6.78;4.25;;;6.80;79.10;;;;;;5037545;28;20574;-75
2021/10/24 05:16:42;;;;;;;7.38;4.32;;;6.80;79.20;;;;;;5056359;28;20037;-75
2021/10/24 05:19:08;;;;;;;7.47;4.78;;;6.80;79.50;;;;;;5055349;28;20025;-75
2021/10/24 05:21:34;;;;;;;5.55;4.53;;;6.70;79.80;;;;;;5055331;28;20068;-75
2021/10/24 05:24:00;;;;;;;8.63;4.32;;;6.70;79.70;;;;;;5041906;28;20022;-74
2021/10/24 05:26:26;;;;;;;7.13;4.30;;;6.80;79.90;;;;;;5049963;28;20083;-74
2021/10/24 05:29:02;;;;;;;;;;;;;;;;;;;;;
2021/10/24 05:31:27;;;;;;;6.80;4.53;;;6.80;79.30;;;;;;5037624;28;20051;-75
2021/10/24 05:33:53;;;;;;;3.70;3.28;;;6.60;80.00;;;;;;5037827;28;20064;-75
2021/10/24 05:36:19;;;;;;;7.40;3.78;;;6.60;79.80;;;;;;5037713;28;20029;-74
2021/10/24 05:38:45;;;;;;;6.95;4.90;;;6.60;79.90;;;;;;5037969;28;20032;-74
2021/10/24 05:41:10;;;;;;;4.43;3.53;;;6.50;80.20;;;;;;5037591;28;20029;-75
2021/10/24 05:43:36;;;;;;;6.88;4.43;;;6.50;80.20;;;;;;5036180;28;20032;-74
2021/10/24 05:46:02;;;;;;;7.80;3.90;;;6.50;80.30;;;;;;5037589;28;20053;-74
2021/10/24 05:48:28;;;;;;;4.65;3.17;;;6.40;80.60;;;;;;5037527;28;20018;-74
2021/10/24 05:50:54;;;;;;;7.80;4.68;;;6.50;80.20;;;;;;5036280;28;20408;-74
2021/10/24 05:53:21;;;;;;;9.55;5.03;;;6.40;80.40;;;;;;5037129;28;20025;-74
2021/10/24 05:55:48;;;;;;;7.88;4.78;;;6.40;80.50;;;;;;5037306;28;20034;-75
2021/10/24 05:58:14;;;;;;;6.88;4.10;;;6.50;80.50;;;;;;5037402;28;20033;-75
2021/10/24 06:00:40;;;;;;;6.60;3.90;;;6.50;80.30;;;;;;5037022;28;20029;-75
2021/10/24 06:03:06;;;;;;;3.35;3.03;;;6.50;80.20;;;;;;5037267;28;20025;-74
2021/10/24 06:05:33;;;;;;;7.43;4.40;;;6.40;80.30;;;;;;5027400;28;20091;-75
2021/10/24 06:08:02;;;;;;;7.75;3.92;;;6.40;80.50;;;;;;5037427;28;20037;-74
2021/10/24 06:10:31;;;;;;;4.60;3.88;;;6.30;80.60;;;;;;5036893;28;20103;-74
2021/10/24 06:12:57;;;;;;;8.53;4.33;;;6.30;80.60;;;;;;5039923;28;20569;-74
2021/10/24 06:15:25;;;;;;;4.95;4.18;;;6.40;80.60;;;;;;5048229;28;20446;-75
2021/10/24 06:17:51;;;;;;;6.32;4.05;;;6.30;80.50;;;;;;5056796;28;20029;-74
2021/10/24 06:20:18;;;;;;;6.93;3.88;;;6.30;80.80;;;;;;5056825;28;20107;-72
2021/10/24 06:22:44;;;;;;;9.02;4.28;;;6.30;80.50;;;;;;5046680;28;20026;-72
2021/10/24 06:25:12;;;;;;;8.35;4.82;;;6.30;80.70;;;;;;5059161;28;20025;-72
2021/10/24 06:27:42;;;;;;;7.07;4.53;;;6.30;80.70;;;;;;5075295;28;20017;-72
2021/10/24 06:30:10;;;;;;;9.93;3.78;;;6.30;80.80;;;;;;5076666;28;20501;-72
2021/10/24 06:32:37;;;;;;;6.97;4.68;;;6.30;80.80;;;;;;5076336;28;20021;-73
2021/10/24 06:35:04;;;;;;;6.43;4.15;;;6.20;81.00;;;;;;5038792;28;20037;-77
2021/10/24 06:37:35;;;;;;;7.45;4.38;;;6.20;81.00;;;;;;5036579;28;20014;-76
2021/10/24 06:40:02;;;;;;;5.53;3.08;;;6.30;81.20;;;;;;5044932;28;20025;-75
2021/10/24 06:42:28;;;;;;;4.70;4.07;;;6.20;81.10;;;;;;5050761;28;20021;-77
2021/10/24 06:44:54;;;;;;;7.00;4.57;;;6.20;81.10;;;;;;5036171;28;20045;-75
2021/10/24 06:47:20;;;;;;;7.47;3.67;;;6.30;81.00;;;;;;5049766;28;20035;-76
2021/10/24 06:49:45;;;;;;;7.05;4.00;;;6.30;80.80;;;;;;5055787;28;20064;-76
2021/10/24 06:52:11;;;;;;;7.13;4.40;;;6.40;80.70;;;;;;5056019;28;20107;-75
2021/10/24 06:54:36;;;;;;;6.68;4.40;;;6.50;80.70;;;;;;5056253;28;20025;-76
2021/10/24 06:57:02;;;;;;;4.40;4.00;;;6.60;80.70;;;;;;5037926;28;20037;-75
2021/10/24 06:59:28;;;;;;;6.15;5.18;;;6.60;80.00;;;;;;5036260;28;20091;-76
2021/10/24 07:01:54;;;;;;;7.10;5.35;;;6.50;80.30;;;;;;5050568;28;20098;-75
2021/10/24 07:04:20;;;;;;;7.60;4.90;;;6.70;80.30;;;;;;5045913;28;20034;-76
2021/10/24 07:06:46;;;;;;;9.93;5.00;;;6.80;79.90;;;;;;5035285;28;20033;-76
2021/10/24 07:09:11;;;;;;;9.93;5.60;;;6.90;79.90;;;;;;5040433;28;20063;-76
2021/10/24 07:11:37;;;;;;;7.53;5.18;;;7.10;79.70;;;;;;5038894;28;20029;-76
2021/10/24 07:14:03;;;;;;;7.63;4.38;;;7.10;78.90;;;;;;5041806;28;20111;-76
2021/10/24 07:16:28;;;;;;;8.90;5.05;;;7.10;79.10;;;;;;5043449;28;20107;-76
2021/10/24 07:18:54;;;;;;;6.18;4.63;;;7.20;79.20;;;;;;5046817;28;20025;-76
2021/10/24 07:21:20;;;;;;;8.77;4.93;;;7.20;78.60;;;;;;5043739;28;20028;-75
2021/10/24 07:23:46;;;;;;;5.20;3.70;;;7.30;78.90;;;;;;5041598;28;20028;-76
2021/10/24 07:26:12;;;;;;;7.88;3.72;;;7.40;78.40;;;;;;5038896;28;20394;-76
2021/10/24 07:28:38;;;;;;;6.30;4.15;;;7.40;78.30;;;;;;5045152;28;20033;-76
2021/10/24 07:31:03;;;;;;;10.13;4.20;;;7.20;78.30;;;;;;5043528;28;20072;-76
2021/10/24 07:33:29;;;;;;;10.20;5.05;;;7.30;78.50;;;;;;5039715;28;20040;-76
2021/10/24 07:35:56;;;;;;;5.40;4.80;;;7.20;78.80;;;;;;5034790;28;20063;-76
2021/10/24 07:38:22;;;;;;;10.40;5.63;;;7.30;78.90;;;;;;5042410;28;20032;-75
2021/10/24 07:40:49;;;;;;;6.90;4.68;;;7.30;78.80;;;;;;5039015;28;20458;-79
2021/10/24 07:43:22;;;;;;;9.43;5.35;;;7.40;78.50;;;;;;5044065;28;20033;-76
2021/10/24 07:45:49;;;;;;;7.43;4.90;;;7.40;78.40;;;;;;5038903;28;20092;-76
2021/10/24 07:48:17;;;;;;;5.55;4.03;;;7.50;78.10;;;;;;5037852;28;20045;-76
2021/10/24 07:50:43;;;;;;;9.27;5.18;;;7.40;78.00;;;;;;5043584;28;20035;-76
2021/10/24 07:53:10;;;;;;;5.15;4.18;;;7.30;78.40;;;;;;5043504;28;20104;-76
2021/10/24 07:55:36;;;;;;;5.80;4.60;;;7.30;78.60;;;;;;5033384;28;20491;-76
2021/10/24 07:58:03;;;;;;;9.20;5.53;;;7.20;78.60;;;;;;5038880;28;20052;-77
2021/10/24 08:00:29;;;;;;;8.40;5.15;;;7.10;79.50;;;;;;5035166;28;20021;-76
2021/10/24 08:02:55;;;;;;;9.52;5.60;;;7.10;79.40;;;;;;5038739;28;20029;-76
2021/10/24 08:05:21;;;;;;;8.43;5.75;;;7.20;79.60;;;;;;5035889;28;20056;-76
2021/10/24 08:07:46;;;;;;;9.20;5.65;;;7.30;79.10;;;;;;5045460;28;20069;-74
2021/10/24 08:10:13;;;;;;;6.63;4.43;;;7.40;79.00;;;;;;5050708;28;20399;-74
2021/10/24 08:12:40;;;;;;;7.03;4.47;;;7.40;78.80;;;;;;5043207;28;20029;-74
2021/10/24 08:15:08;;;;;;;6.90;5.22;;;7.60;78.80;;;;;;5043590;28;20053;-74
2021/10/24 08:17:34;;;;;;;8.25;5.68;;;7.70;78.80;;;;;;5042408;28;20534;-74
2021/10/24 08:20:00;;;;;;;7.65;4.95;;;7.80;78.40;;;;;;5033946;28;20117;-75
2021/10/24 08:22:26;;;;;;;8.35;4.80;;;7.90;78.40;;;;;;5035197;28;20034;-72
2021/10/24 08:24:52;;;;;;;8.00;5.18;;;8.00;77.80;;;;;;5038024;28;20564;-74
2021/10/24 08:27:21;;;;;;;7.60;5.63;;;8.10;78.40;;;;;;5044420;28;20037;-74
2021/10/24 08:29:47;;;;;;;10.32;5.72;;;8.20;78.20;;;;;;5053563;28;20056;-73
2021/10/24 08:32:13;;;;;;;10.90;5.53;;;8.30;77.80;;;;;;5048351;28;20036;-75
2021/10/24 08:34:40;;;;;;;10.05;6.72;;;8.50;78.00;;;;;;5034474;28;20034;-76
2021/10/24 08:37:07;;;;;;;8.43;5.75;;;8.50;77.20;;;;;;5040968;28;20120;-76
2021/10/24 08:39:37;;;;;;;7.88;5.53;;;8.70;77.60;;;;;;5043333;28;20112;-77
2021/10/24 08:42:04;;;;;;;7.60;5.93;;;8.70;77.10;;;;;;5038632;28;20029;-76
2021/10/24 08:44:30;;;;;;;6.03;3.72;;;8.70;77.30;;;;;;5040904;28;20276;-76
2021/10/24 08:46:57;;;;;;;8.73;5.45;;;8.80;77.10;;;;;;5056620;28;20037;-76
2021/10/24 08:49:23;;;;;;;7.97;5.40;;;8.80;77.50;;;;;;5038908;28;20048;-77
2021/10/24 08:51:49;;;;;;;8.30;5.25;;;8.90;77.30;;;;;;5045658;28;20712;-79
2021/10/24 08:54:19;;;;;;;9.82;6.18;;;8.90;77.80;;;;;;5049239;28;20567;-76
2021/10/24 08:56:45;;;;;;;7.53;3.83;;;9.00;77.60;;;;;;5039525;28;20087;-78
2021/10/24 08:59:10;;;;;;;8.02;5.20;;;9.20;77.60;;;;;;5046975;28;20029;-79
2021/10/24 09:01:52;;;;;;;10.13;5.57;;;9.20;77.50;;;;;;5045736;28;20026;-76
2021/10/24 09:04:18;;;;;;;7.60;5.05;;;9.30;77.30;;;;;;5046284;28;20097;-78
2021/10/24 09:06:44;;;;;;;10.00;5.68;;;9.50;77.60;;;;;;5037777;28;20036;-77
2021/10/24 09:09:11;;;;;;;8.57;5.80;;;9.60;77.30;;;;;;5053996;28;20406;-76
2021/10/24 09:11:41;;;;;;;11.05;5.03;;;9.70;77.10;;;;;;5039529;28;20033;-76
2021/10/24 09:14:06;;;;;;;7.20;4.43;;;9.80;77.10;;;;;;5048119;28;20506;-77
2021/10/24 09:16:51;;;;;;;7.00;4.38;;;9.90;76.60;;;;;;5054084;28;20411;-83
2021/10/24 09:19:17;;;;;;;7.95;7.15;;;10.00;76.60;;;;;;5043831;28;20051;-81
2021/10/24 09:21:43;;;;;;;6.30;4.78;;;10.20;76.50;;;;;;5045854;28;20523;-81
2021/10/24 09:24:12;;;;;;;9.27;4.53;;;10.40;76.60;;;;;;5044126;28;20020;-80
2021/10/24 09:26:40;;;;;;;5.97;3.75;;;10.50;76.30;;;;;;5049023;28;20025;-78
2021/10/24 09:29:14;;;;;;;11.73;5.88;;;10.50;76.00;;;;;;5047413;28;20028;-83
2021/10/24 09:31:51;;;;;;;9.32;5.35;;;10.60;76.30;;;;;;5045077;28;20037;-83
2021/10/24 09:34:20;;;;;;;7.90;4.85;;;10.70;76.50;;;;;;5052811;28;20108;-79
2021/10/24 09:36:53;;;;;;;8.43;4.80;;;10.80;76.50;;;;;;5055832;28;20025;-79
2021/10/24 09:39:20;;;;;;;6.05;5.00;;;10.90;76.90;;;;;;5045934;28;20018;-80
2021/10/24 09:41:47;;;;;;;6.63;4.80;;;11.00;76.80;;;;;;5046949;28;20387;-79
2021/10/24 09:44:21;;;;;;;9.05;5.45;;;11.10;76.40;;;;;;5037387;28;20466;-78
2021/10/24 09:46:58;;;;;;;19.27;12.38;;;11.20;76.30;;;;;;5041127;28;20045;-81
2021/10/24 09:49:25;;;;;;;11.57;5.55;;;11.20;76.10;;;;;;5042993;28;20026;-78
2021/10/24 09:51:52;;;;;;;8.93;5.32;;;11.30;76.20;;;;;;5035888;28;20033;-79
2021/10/24 09:54:23;;;;;;;10.65;5.38;;;11.40;76.60;;;;;;5040151;28;20032;-76
2021/10/24 09:56:50;;;;;;;8.57;4.28;;;11.50;76.30;;;;;;5036163;28;20037;-77
2021/10/24 09:59:18;;;;;;;8.10;4.57;;;11.60;76.00;;;;;;5040889;28;20022;-77
2021/10/24 10:01:46;;;;;;;9.25;6.20;;;11.70;75.20;;;;;;5047635;28;20049;-75
2021/10/24 10:04:12;;;;;;;8.77;5.65;;;11.80;76.00;;;;;;5045655;28;20381;-75
2021/10/24 10:06:42;;;;;;;9.25;5.30;;;11.90;75.80;;;;;;5048612;28;20099;-75
2021/10/24 10:09:07;;;;;;;11.50;5.40;;;12.20;75.50;;;;;;5047650;28;20037;-75
2021/10/24 10:11:58;;;;;;;6.53;4.90;;;12.20;75.70;;;;;;5043331;28;20070;-76
2021/10/24 10:14:26;;;;;;;6.55;4.90;;;12.10;75.20;;;;;;5036781;28;20029;-75
2021/10/24 10:16:59;;;;;;;5.78;3.67;;;12.10;75.50;;;;;;5036602;28;20021;-75
2021/10/24 10:19:34;;;;;;;8.85;5.05;;;12.20;75.30;;;;;;5041949;28;20017;-75
2021/10/24 10:22:22;;;;;;;6.35;4.50;;;12.30;75.80;;;;;;5047362;28;20014;-75
2021/10/24 10:24:48;;;;;;;8.10;5.97;;;12.50;75.30;;;;;;5048973;28;20116;-75
2021/10/24 10:27:29;;;;;;;10.70;5.38;;;12.70;75.70;;;;;;5046152;28;20029;-75
2021/10/24 10:29:57;;;;;;;5.50;4.75;;;12.70;75.00;;;;;;5050456;28;20127;-75
2021/10/24 10:32:34;;;;;;;6.63;4.60;;;12.70;74.80;;;;;;5036635;28;20029;-75
2021/10/24 10:35:13;;;;;;;9.93;5.53;;;12.80;75.00;;;;;;5046786;28;20033;-75
2021/10/24 10:37:57;;;;;;;7.70;4.00;;;12.90;75.30;;;;;;5057192;28;20022;-75
2021/10/24 10:40:30;;;;;;;8.40;5.13;;;12.90;75.10;;;;;;5047162;28;20026;-75
2021/10/24 10:42:59;;;;;;;6.28;4.28;;;13.00;75.20;;;;;;5043020;28;20089;-75
2021/10/24 10:45:27;;;;;;;9.33;5.20;;;13.10;76.10;;;;;;5037435;28;20049;-75
2021/10/24 10:47:59;;;;;;;9.85;5.28;;;13.10;76.00;;;;;;5045060;28;20098;-75
2021/10/24 10:50:27;;;;;;;8.32;4.65;;;13.20;75.60;;;;;;5044376;28;20105;-75
2021/10/24 10:52:54;;;;;;;11.65;5.57;;;13.30;75.00;;;;;;5036456;28;20029;-75
2021/10/24 10:55:20;;;;;;;11.75;5.10;;;13.40;75.10;;;;;;5035566;28;20723;-75
2021/10/24 10:57:46;;;;;;;7.55;4.68;;;13.40;75.50;;;;;;5047425;28;20572;-75
2021/10/24 11:00:32;;;;;;;8.32;5.10;;;13.50;76.00;;;;;;5056058;28;20017;-76
2021/10/24 11:02:58;;;;;;;8.50;5.18;;;13.50;76.40;;;;;;5053798;28;20254;-75
2021/10/24 11:05:38;;;;;;;11.07;5.70;;;13.50;76.40;;;;;;5056018;28;20056;-75
2021/10/24 11:08:04;;;;;;;9.45;4.57;;;13.70;76.30;;;;;;5036194;28;20033;-75
2021/10/24 11:10:44;;;;;;;7.50;4.35;;;13.90;76.50;;;;;;5036121;28;20511;-75
2021/10/24 11:13:28;;;;;;;6.88;4.78;;;14.00;75.90;;;;;;5049009;28;20403;-75
2021/10/24 11:15:54;;;;;;;6.35;3.47;;;14.20;75.90;;;;;;5055568;28;20499;-75
2021/10/24 11:18:33;;;;;;;5.65;3.42;;;14.50;75.70;;;;;;5054799;28;20020;-75
2021/10/24 11:21:00;;;;;;;6.10;3.00;;;14.70;74.60;;;;;;5050511;28;20078;-75
2021/10/24 11:23:30;;;;;;;5.70;3.15;;;14.70;74.40;;;;;;5034546;28;20029;-75
2021/10/24 11:25:58;;;;;;;5.80;3.28;;;14.70;74.40;;;;;;5071755;28;20033;-75
2021/10/24 11:28:28;;;;;;;6.05;3.13;;;14.80;73.70;;;;;;5074249;28;20042;-75
2021/10/24 11:31:05;;;;;;;4.00;2.55;;;14.80;74.30;;;;;;5060340;28;20017;-75
2021/10/24 11:33:43;;;;;;;7.03;2.70;;;14.90;74.10;;;;;;5055617;28;20108;-75
2021/10/24 11:36:09;;;;;;;4.88;3.03;;;15.10;73.50;;;;;;5052936;28;20108;-75
2021/10/24 11:38:35;;;;;;;7.03;3.13;;;15.20;74.00;;;;;;5055505;28;20061;-75
2021/10/24 11:41:01;;;;;;;8.20;2.42;;;15.10;73.10;;;;;;5055535;28;20522;-75
2021/10/24 11:43:29;;;;;;;5.55;2.60;;;15.40;72.20;;;;;;5055680;28;20056;-75
2021/10/24 11:45:57;;;;;;;3.28;2.10;;;15.50;72.90;;;;;;5047386;28;20060;-75
2021/10/24 11:48:26;;;;;;;6.40;2.72;;;15.60;72.60;;;;;;5035538;28;20040;-75
2021/10/24 11:50:55;;;;;;;3.17;2.23;;;15.60;72.40;;;;;;5035473;28;20088;-75
2021/10/24 11:53:21;;;;;;;4.60;2.65;;;15.60;72.00;;;;;;5035187;28;20334;-75
2021/10/24 11:55:59;;;;;;;4.05;2.25;;;15.60;72.30;;;;;;5050793;28;20033;-76
2021/10/24 12:01:16;;;;;;;7.20;2.75;;;15.70;72.50;;;;;;5035543;28;20095;-76
2021/10/24 12:03:45;;;;;;;4.53;2.53;;;15.80;73.30;;;;;;5041944;28;20034;-75
2021/10/24 12:06:12;;;;;;;4.55;2.03;;;15.80;72.90;;;;;;5035287;28;20124;-75
2021/10/24 12:09:04;;;;;;;4.38;2.30;;;15.80;73.00;;;;;;5033999;28;20044;-75
2021/10/24 12:11:45;;;;;;;6.72;2.38;;;15.90;73.20;;;;;;5033991;28;20116;-75
2021/10/24 12:14:14;;;;;;;4.72;2.13;;;15.90;72.70;;;;;;5035011;28;20026;-75
2021/10/24 12:16:43;;;;;;;3.83;1.92;;;15.90;73.00;;;;;;5034151;28;20079;-74
2021/10/24 12:19:11;;;;;;;5.28;2.17;;;15.90;72.20;;;;;;5034912;28;20026;-76
2021/10/24 12:21:38;;;;;;;4.50;2.00;;;15.90;71.40;;;;;;5035407;28;20032;-75
2021/10/24 12:24:47;;;;;;;5.45;2.17;;;15.90;71.80;;;;;;5043090;28;20033;-75
2021/10/24 12:27:31;;;;;;;7.05;2.15;;;16.00;71.70;;;;;;5075122;28;20032;-76
2021/10/24 12:30:01;;;;;;;5.55;2.22;;;16.00;71.40;;;;;;5059037;28;20038;-75
2021/10/24 12:32:27;;;;;;;5.85;2.53;;;16.00;72.30;;;;;;5038911;28;20025;-75
2021/10/24 12:35:11;;;;;;;5.50;2.35;;;16.00;71.80;;;;;;5038898;28;20029;-75
2021/10/24 12:37:40;;;;;;;4.45;2.03;;;15.90;71.70;;;;;;5038882;28;20029;-75
2021/10/24 12:40:26;;;;;;;4.38;2.13;;;15.80;72.10;;;;;;5038938;28;20030;-75
2021/10/24 12:43:00;;;;;;;6.97;2.90;;;15.80;73.00;;;;;;5038648;28;20041;-75
2021/10/24 12:45:26;;;;;;;5.97;2.67;;;15.70;72.70;;;;;;5036933;28;20511;-75
2021/10/24 12:47:59;;;;;;;4.38;1.95;;;15.60;72.60;;;;;;5038562;28;20049;-75
2021/10/24 12:50:32;;;;;;;4.60;2.10;;;15.70;72.20;;;;;;5037593;28;20144;-75
2021/10/24 12:53:23;;;;;;;3.47;1.90;;;15.70;72.30;;;;;;5038638;28;20503;-75
2021/10/24 12:56:05;;;;;;;5.22;2.30;;;15.70;72.60;;;;;;5037299;28;20047;-75
2021/10/24 12:58:32;;;;;;;9.27;3.08;;;15.60;72.70;;;;;;5037069;28;20018;-75
2021/10/24 13:00:59;;;;;;;4.43;2.28;;;15.60;72.60;;;;;;5036702;28;20075;-75